createdAt,value
2023-05-23T06:09:19.879Z,95118.66
2023-05-23T06:11:47.161Z,95120.84
2023-05-23T06:14:14.286Z,95122.03
2023-05-23T06:16:44.573Z,95134.31
2023-05-23T06:19:11.638Z,95130.00
2023-05-23T06:21:39.925Z,95135.47
2023-05-23T06:24:09.101Z,95140.31
2023-05-23T06:26:37.569Z,95131.16
2023-05-23T06:29:04.258Z,95141.72
2023-05-23T06:31:31.059Z,95139.66
2023-05-23T06:33:57.929Z,95142.44
2023-05-23T06:36:24.535Z,95140.53
2023-05-23T06:38:51.140Z,95138.00
2023-05-23T06:41:17.764Z,95135.34
2023-05-23T06:43:44.349Z,95138.22
2023-05-23T06:46:31.606Z,95141.50
2023-05-23T06:49:13.281Z,95138.44
2023-05-23T06:51:41.815Z,95141.47
2023-05-23T06:54:08.644Z,95139.47
2023-05-23T06:56:35.822Z,95142.88
2023-05-23T06:59:03.851Z,95148.31
2023-05-23T07:01:30.971Z,95146.13
2023-05-23T07:03:57.590Z,95141.84
2023-05-23T07:06:24.510Z,95149.84
2023-05-23T07:08:51.283Z,95149.50
2023-05-23T07:11:17.941Z,95150.97
2023-05-23T07:13:50.299Z,95149.22
2023-05-23T07:16:22.696Z,95146.94
2023-05-23T07:19:01.792Z,95147.84
2023-05-23T07:21:28.878Z,95144.47
2023-05-23T07:23:55.986Z,95152.59
2023-05-23T07:26:22.980Z,95159.34
2023-05-23T07:28:53.933Z,95165.44
2023-05-23T07:31:20.541Z,95161.31
2023-05-23T07:33:47.183Z,95169.47
2023-05-23T07:36:22.301Z,95171.44
2023-05-23T07:38:49.250Z,95168.41
2023-05-23T07:41:15.977Z,95162.09
2023-05-23T07:43:42.726Z,95164.97
2023-05-23T07:46:09.509Z,95164.94
2023-05-23T07:48:37.534Z,95167.75
2023-05-23T07:51:04.337Z,95173.66
2023-05-23T07:53:31.195Z,95172.38
2023-05-23T07:55:58.357Z,95168.56
2023-05-23T07:58:28.030Z,95175.50
2023-05-23T08:00:54.660Z,95174.13
2023-05-23T08:03:40.076Z,95180.75
2023-05-23T08:06:14.211Z,95174.34
2023-05-23T08:08:41.193Z,95179.00
2023-05-23T08:11:08.475Z,95183.88
2023-05-23T08:13:40.957Z,95179.94
2023-05-23T08:16:28.012Z,95187.97
2023-05-23T08:18:54.927Z,95184.81
2023-05-23T08:21:21.591Z,95178.66
2023-05-23T08:23:48.514Z,95182.25
2023-05-23T08:26:15.482Z,95185.88
2023-05-23T08:28:42.133Z,95187.03
2023-05-23T08:31:08.717Z,95187.13
2023-05-23T08:33:35.458Z,95193.75
2023-05-23T08:36:02.056Z,95193.66
2023-05-23T08:38:29.078Z,95195.97
2023-05-23T08:41:31.356Z,95188.06
2023-05-23T08:44:05.194Z,95196.09
2023-05-23T08:46:49.878Z,95196.91
2023-05-23T08:49:28.205Z,95199.94
2023-05-23T08:52:01.466Z,95200.75
2023-05-23T08:54:29.508Z,95201.56
2023-05-23T08:56:56.162Z,95202.34
2023-05-23T08:59:23.694Z,95204.09
2023-05-23T09:01:52.129Z,95205.50
2023-05-23T09:04:18.879Z,95200.84
2023-05-23T09:06:59.806Z,95199.94
2023-05-23T09:09:26.463Z,95203.41
2023-05-23T09:11:55.349Z,95206.09
2023-05-23T09:14:22.531Z,95206.19
2023-05-23T09:16:51.571Z,95212.50
2023-05-23T09:19:22.230Z,95208.56
2023-05-23T09:21:55.499Z,95210.84
2023-05-23T09:24:34.923Z,95210.00
2023-05-23T09:27:03.005Z,95210.81
2023-05-23T09:29:30.720Z,95218.75
2023-05-23T09:32:11.074Z,95205.16
2023-05-23T09:34:59.193Z,95210.81
2023-05-23T09:37:34.710Z,95210.09
2023-05-23T09:40:07.157Z,95206.34
2023-05-23T09:42:34.341Z,95208.81
2023-05-23T09:45:04.009Z,95207.47
2023-05-23T09:47:31.816Z,95212.00
2023-05-23T09:49:58.759Z,95210.63
2023-05-23T09:52:26.312Z,95206.06
2023-05-23T09:54:53.934Z,95215.72
2023-05-23T09:57:22.972Z,95205.13
2023-05-23T09:59:54.433Z,95218.16
2023-05-23T10:02:53.888Z,95212.59
2023-05-23T10:05:50.218Z,95211.75
2023-05-23T10:08:31.214Z,95211.66
2023-05-23T10:10:57.713Z,95213.66
2023-05-23T10:13:28.832Z,95205.38
2023-05-23T10:16:07.029Z,95210.97
2023-05-23T10:18:42.335Z,95209.66
2023-05-23T10:21:15.576Z,95201.19
2023-05-23T10:23:42.640Z,95200.72
2023-05-23T10:26:10.561Z,95204.34
2023-05-23T10:28:37.540Z,95202.13
2023-05-23T10:31:04.322Z,95201.09
2023-05-23T10:33:40.723Z,95202.59
2023-05-23T10:36:17.769Z,95195.19
2023-05-23T10:38:51.270Z,95199.00
2023-05-23T10:41:36.744Z,95193.88
2023-05-23T10:44:20.406Z,95195.75
2023-05-23T10:47:04.517Z,95202.03
2023-05-23T10:49:37.884Z,95201.31
2023-05-23T10:52:05.049Z,95203.53
2023-05-23T10:54:56.134Z,95207.94
2023-05-23T10:57:29.505Z,95211.31
2023-05-23T10:59:56.494Z,95206.78
2023-05-23T11:02:28.047Z,95208.50
2023-05-23T11:05:22.191Z,95208.66
2023-05-23T11:08:14.509Z,95200.16
2023-05-23T11:10:56.055Z,95198.25
2023-05-23T11:13:23.451Z,95190.59
2023-05-23T11:15:50.698Z,95189.91
2023-05-23T11:18:24.694Z,95184.25
2023-05-23T11:20:54.391Z,95171.59
2023-05-23T11:23:22.058Z,95172.81
2023-05-23T11:25:50.786Z,95179.03
2023-05-23T11:28:18.091Z,95171.78
2023-05-23T11:30:48.105Z,95168.53
2023-05-23T11:33:16.386Z,95172.09
2023-05-23T11:35:48.161Z,95178.16
2023-05-23T11:38:16.645Z,95166.13
2023-05-23T11:40:46.244Z,95163.31
2023-05-23T11:43:17.814Z,95156.38
2023-05-23T11:45:46.866Z,95159.22
2023-05-23T11:48:16.621Z,95154.50
2023-05-23T11:50:54.106Z,95152.09
2023-05-23T11:53:25.065Z,95146.16
2023-05-23T11:55:58.425Z,95150.97
2023-05-23T11:58:36.043Z,95144.69
2023-05-23T12:01:13.509Z,95144.22
2023-05-23T12:03:47.746Z,95127.56
2023-05-23T12:06:21.804Z,95134.88
2023-05-23T12:08:48.391Z,95137.94
2023-05-23T12:11:15.218Z,95137.03
2023-05-23T12:13:42.345Z,95137.53
2023-05-23T12:16:09.274Z,95141.75
2023-05-23T12:18:37.887Z,95142.00
2023-05-23T12:21:07.950Z,95142.94
2023-05-23T12:23:35.765Z,95146.03
2023-05-23T12:26:06.959Z,95149.25
2023-05-23T12:28:45.128Z,95148.91
2023-05-23T12:31:33.316Z,95149.47
2023-05-23T12:33:59.915Z,95143.97
2023-05-23T12:36:29.009Z,95138.09
2023-05-23T12:39:02.885Z,95155.59
2023-05-23T12:41:29.882Z,95159.66
2023-05-23T12:43:56.974Z,95156.97
2023-05-23T12:46:25.400Z,95148.91
2023-05-23T12:48:53.125Z,95156.53
2023-05-23T12:51:20.980Z,95152.75
2023-05-23T12:53:48.362Z,95160.25
2023-05-23T12:56:14.965Z,95158.78
2023-05-23T12:58:41.872Z,95161.97
2023-05-23T13:01:09.113Z,95158.72
2023-05-23T13:03:36.600Z,95162.94
2023-05-23T13:06:03.271Z,95157.41
2023-05-23T13:08:29.853Z,95156.59
2023-05-23T13:10:57.181Z,95150.44
2023-05-23T13:13:23.910Z,95147.66
2023-05-23T13:15:51.646Z,95141.69
2023-05-23T13:18:18.688Z,95142.72
2023-05-23T13:20:46.284Z,95146.09
2023-05-23T13:23:12.966Z,95148.59
2023-05-23T13:25:39.693Z,95145.81
2023-05-23T13:28:06.620Z,95135.94
2023-05-23T13:30:33.588Z,95145.44
2023-05-23T13:33:00.445Z,95140.16
2023-05-23T13:35:27.079Z,95140.94
2023-05-23T13:37:53.717Z,95139.75
2023-05-23T13:40:21.619Z,95135.72
2023-05-23T13:42:51.042Z,95131.91
2023-05-23T13:45:18.423Z,95131.16
2023-05-23T13:47:46.281Z,95129.03
2023-05-23T13:50:12.911Z,95132.19
2023-05-23T13:52:42.167Z,95134.06
2023-05-23T13:55:11.054Z,95132.53
2023-05-23T13:57:37.708Z,95132.94
2023-05-23T14:00:05.313Z,95131.63
2023-05-23T14:02:32.141Z,95144.69
2023-05-23T14:04:58.937Z,95142.09
2023-05-23T14:07:25.621Z,95154.03
2023-05-23T14:09:52.257Z,95157.59
2023-05-23T14:12:25.044Z,95160.19
